PDV weather

Punta De Vacas Airport
Punta de Vacas, Mendoza Province, Argentina

Public forecast

Using degrees Celsius for public forecast. Weather courtesy of forecast.io.

METAR (pilot weather report)

Closest report is El Plumerillo Airport, 48.8 nm (90.4 km) E. Retrieved 2019/07/17 22:00 UTC (2 minutes ago):

SAME 172200Z 05004KT CAVOK 13/04 Q1010

TAF (pilot weather forecast)

Closest forecast is El Plumerillo Airport, 48.8 nm (90.4 km) E. Retrieved 2019/07/17 18:00 UTC (4 hours ago):

TAF SAME 171700Z 1718/1818 05005KT 9999 FEW040 SCT090 TX18/1720Z TN05/1810Z BECMG 1804/1806 14015KT 9999 SCT030 BKN090